Strona główna
METAR-TAF:

METAR-TAF

Lotnisko :

Fort Meade, Maryland, Stany Zjednoczone

Szerokość geograficzna: 39-05N, Długość geograficzna: 076-46W, wysokość: 46 m

Aktualna obserwacja pogody

Raport powstał 21 minut temu, godzina 12:03 UTC
Wiatr 5 kt od zachód
Temperatura 23°C
Wilgotność 94%
Ciśnienie 1012 hPa
Widzialność: 11.3 km

METAR: KFME 251203Z AUTO 28005KT 7SM 23/22 A2987 RMK AO1

czas: 08:24 (12:24 UTC)


TAF: brakujący

Obserwacja i prognoza pogody dla ponad 4000 lotnisk (raport METAR i TAF).

Dostępne stacje oznaczono żółtymi i czerwonymi punktami na mapie.

Najedź kursorem aby zobaczyć nazwę stacji.

Kliknij aby zobaczyć obserwacje i prognozy pogody.

Aby zmienić mapę: kliknij na zielony przycisk z czarnym krzyżykiem, aby powiększyć; na zielony przycisk z myślnikiem, aby pomniejszyć; na zielone strzałki, aby przejść do map sąsiednich.


METAR-TAF: